createdAt,value
2023-04-06T00:01:57.959Z,97.03
2023-04-06T00:04:24.847Z,97.03
2023-04-06T00:06:51.837Z,97.69
2023-04-06T00:09:18.720Z,97.40
2023-04-06T00:11:45.536Z,97.55
2023-04-06T00:14:12.561Z,98.46
2023-04-06T00:16:39.435Z,98.33
2023-04-06T00:19:06.552Z,98.30
2023-04-06T00:21:33.567Z,98.64
2023-04-06T00:24:00.494Z,98.19
2023-04-06T00:26:27.594Z,98.94
2023-04-06T00:28:54.450Z,98.90
2023-04-06T00:31:21.754Z,99.51
2023-04-06T00:33:49.531Z,99.72
2023-04-06T00:36:16.422Z,99.46
2023-04-06T00:38:43.362Z,98.90
2023-04-06T00:41:10.238Z,99.14
2023-04-06T00:43:37.055Z,99.83
2023-04-06T00:46:03.964Z,100.00
2023-04-06T00:48:32.389Z,100.00
2023-04-06T00:50:59.449Z,100.00
2023-04-06T00:53:26.818Z,99.73
2023-04-06T00:55:53.675Z,99.99
2023-04-06T00:58:20.804Z,99.68
2023-04-06T01:00:47.719Z,99.78
2023-04-06T01:03:15.059Z,99.97
2023-04-06T01:05:45.729Z,100.00
2023-04-06T01:08:12.585Z,100.00
2023-04-06T01:10:39.339Z,100.00
2023-04-06T01:13:06.289Z,100.00
2023-04-06T01:15:33.771Z,100.00
2023-04-06T01:18:00.613Z,100.00
2023-04-06T01:20:27.653Z,100.00
2023-04-06T01:22:54.445Z,100.00
2023-04-06T01:25:21.626Z,100.00
2023-04-06T01:27:48.432Z,100.00
2023-04-06T01:30:15.216Z,100.00
2023-04-06T01:32:42.395Z,100.00
2023-04-06T01:35:09.554Z,100.00
2023-04-06T01:37:36.546Z,100.00
2023-04-06T01:40:03.590Z,100.00
2023-04-06T01:42:31.575Z,100.00
2023-04-06T01:44:58.415Z,100.00
2023-04-06T01:47:25.241Z,100.00
2023-04-06T01:49:52.012Z,100.00
2023-04-06T01:52:19.194Z,100.00
2023-04-06T01:54:46.240Z,100.00
2023-04-06T01:57:13.058Z,100.00
2023-04-06T01:59:39.946Z,100.00
2023-04-06T02:02:06.912Z,100.00
2023-04-06T02:04:33.814Z,100.00
2023-04-06T02:07:00.959Z,100.00
2023-04-06T02:09:27.937Z,100.00
2023-04-06T02:11:54.873Z,100.00
2023-04-06T02:14:21.834Z,100.00
2023-04-06T02:16:48.887Z,100.00
2023-04-06T02:19:15.700Z,100.00
2023-04-06T02:21:42.613Z,100.00
2023-04-06T02:24:09.570Z,100.00
2023-04-06T02:26:36.359Z,100.00
2023-04-06T02:29:03.572Z,100.00
2023-04-06T02:31:30.466Z,100.00
2023-04-06T02:33:57.338Z,100.00
2023-04-06T02:36:24.085Z,100.00
2023-04-06T02:38:50.964Z,100.00
2023-04-06T02:41:17.724Z,100.00
2023-04-06T02:43:44.588Z,100.00
2023-04-06T02:46:11.552Z,100.00
2023-04-06T02:48:38.483Z,100.00
2023-04-06T02:51:05.354Z,100.00
2023-04-06T02:53:32.141Z,100.00
2023-04-06T02:56:01.351Z,100.00
2023-04-06T02:58:28.155Z,100.00
2023-04-06T03:00:55.004Z,100.00
2023-04-06T03:03:22.634Z,100.00
2023-04-06T03:05:49.719Z,100.00
2023-04-06T03:08:16.704Z,100.00
2023-04-06T03:10:43.538Z,100.00
2023-04-06T03:13:10.362Z,100.00
2023-04-06T03:15:37.255Z,100.00
2023-04-06T03:18:04.226Z,100.00
2023-04-06T03:20:31.407Z,100.00
2023-04-06T03:22:58.221Z,100.00
2023-04-06T03:25:25.152Z,100.00
2023-04-06T03:27:51.972Z,100.00
2023-04-06T03:30:18.969Z,100.00
2023-04-06T03:32:46.065Z,100.00
2023-04-06T03:35:12.985Z,100.00
2023-04-06T03:37:39.794Z,100.00
2023-04-06T03:40:06.943Z,100.00
2023-04-06T03:42:34.028Z,100.00
2023-04-06T03:45:00.847Z,100.00
2023-04-06T03:47:27.678Z,100.00
2023-04-06T03:49:54.562Z,100.00
2023-04-06T03:52:21.443Z,100.00
2023-04-06T03:54:48.224Z,100.00
2023-04-06T03:57:15.200Z,100.00
2023-04-06T03:59:42.275Z,100.00
2023-04-06T04:02:09.211Z,100.00
2023-04-06T04:04:36.328Z,100.00
2023-04-06T04:07:03.175Z,100.00
2023-04-06T04:09:30.103Z,100.00
2023-04-06T04:11:56.897Z,100.00
2023-04-06T04:14:23.708Z,100.00
2023-04-06T04:16:50.875Z,100.00
2023-04-06T04:19:17.780Z,100.00
2023-04-06T04:21:46.253Z,100.00
2023-04-06T04:24:13.229Z,100.00
2023-04-06T04:26:40.235Z,100.00
2023-04-06T04:29:07.684Z,100.00
2023-04-06T04:31:34.745Z,100.00
2023-04-06T04:34:01.597Z,100.00
2023-04-06T04:36:28.407Z,100.00
2023-04-06T04:38:55.242Z,100.00
2023-04-06T04:41:22.047Z,100.00
2023-04-06T04:43:48.940Z,100.00
2023-04-06T04:46:15.981Z,100.00
2023-04-06T04:48:42.815Z,100.00
2023-04-06T04:51:09.662Z,100.00
2023-04-06T04:53:36.475Z,100.00
2023-04-06T04:56:03.325Z,100.00
2023-04-06T04:58:32.618Z,100.00
2023-04-06T05:00:59.694Z,100.00
2023-04-06T05:03:27.987Z,100.00
2023-04-06T05:05:57.410Z,100.00
2023-04-06T05:08:24.211Z,100.00
2023-04-06T05:10:51.523Z,100.00
2023-04-06T05:13:18.356Z,100.00
2023-04-06T05:15:45.333Z,100.00
2023-04-06T05:18:12.457Z,100.00
2023-04-06T05:20:40.098Z,100.00
2023-04-06T05:23:07.098Z,100.00
2023-04-06T05:25:34.328Z,100.00
2023-04-06T05:28:01.231Z,100.00
2023-04-06T05:30:28.037Z,100.00
2023-04-06T05:32:55.707Z,100.00
2023-04-06T05:35:22.631Z,100.00
2023-04-06T05:37:49.547Z,100.00
2023-04-06T05:40:16.745Z,100.00
2023-04-06T05:42:44.204Z,100.00
2023-04-06T05:45:17.881Z,100.00
2023-04-06T05:47:45.875Z,100.00
2023-04-06T05:50:13.174Z,100.00
2023-04-06T05:52:40.096Z,100.00
2023-04-06T05:55:08.452Z,100.00
2023-04-06T05:57:37.134Z,100.00
2023-04-06T06:00:05.048Z,100.00
2023-04-06T06:02:32.276Z,100.00
2023-04-06T06:04:59.467Z,100.00
2023-04-06T06:07:26.394Z,100.00
2023-04-06T06:09:53.270Z,100.00
2023-04-06T06:12:20.154Z,100.00
2023-04-06T06:14:47.144Z,100.00
2023-04-06T06:17:14.050Z,100.00
2023-04-06T06:19:40.934Z,100.00
2023-04-06T06:22:08.028Z,100.00
2023-04-06T06:24:34.974Z,100.00
2023-04-06T06:27:01.837Z,100.00
2023-04-06T06:29:28.744Z,100.00
2023-04-06T06:31:55.847Z,100.00
2023-04-06T06:34:22.677Z,100.00
2023-04-06T06:36:51.606Z,100.00
2023-04-06T06:39:19.668Z,100.00
2023-04-06T06:41:48.975Z,100.00
2023-04-06T06:44:16.551Z,100.00
2023-04-06T06:46:43.474Z,100.00
2023-04-06T06:49:12.435Z,100.00
2023-04-06T06:51:39.441Z,100.00
2023-04-06T06:54:06.677Z,100.00
2023-04-06T06:56:33.794Z,100.00
2023-04-06T06:59:00.648Z,100.00
2023-04-06T07:01:27.620Z,100.00
2023-04-06T07:03:54.585Z,100.00
2023-04-06T07:06:21.629Z,100.00
2023-04-06T07:08:48.600Z,100.00
2023-04-06T07:11:15.638Z,100.00
2023-04-06T07:13:42.496Z,100.00
2023-04-06T07:16:09.401Z,100.00
2023-04-06T07:18:36.565Z,100.00
2023-04-06T07:21:03.647Z,100.00
2023-04-06T07:23:30.775Z,100.00
2023-04-06T07:25:57.726Z,100.00
2023-04-06T07:28:24.738Z,100.00
2023-04-06T07:30:51.863Z,100.00
2023-04-06T07:33:18.763Z,100.00
2023-04-06T07:35:46.729Z,100.00
2023-04-06T07:38:14.035Z,100.00
2023-04-06T07:40:41.066Z,100.00
2023-04-06T07:43:08.034Z,100.00
2023-04-06T07:45:34.966Z,100.00
2023-04-06T07:48:02.465Z,100.00
2023-04-06T07:50:29.489Z,100.00
2023-04-06T07:52:56.513Z,100.00
2023-04-06T07:55:23.889Z,100.00
2023-04-06T07:57:56.054Z,100.00
2023-04-06T08:00:23.233Z,100.00
2023-04-06T08:02:50.374Z,100.00
2023-04-06T08:05:17.474Z,99.90
2023-04-06T08:07:44.731Z,99.35
2023-04-06T08:10:11.868Z,98.43
2023-04-06T08:12:38.813Z,98.12
2023-04-06T08:15:06.634Z,98.05
2023-04-06T08:17:33.847Z,98.23
2023-04-06T08:20:01.405Z,97.70
2023-04-06T08:22:28.336Z,98.01
2023-04-06T08:24:55.421Z,97.77
2023-04-06T08:27:22.331Z,97.12
2023-04-06T08:29:51.058Z,96.48
2023-04-06T08:32:18.033Z,96.87
2023-04-06T08:34:45.023Z,96.68
2023-04-06T08:37:11.894Z,97.28
2023-04-06T08:39:38.834Z,97.74
2023-04-06T08:42:06.828Z,97.33
2023-04-06T08:44:34.807Z,96.73
2023-04-06T08:47:02.549Z,95.94
2023-04-06T08:49:29.612Z,95.88
2023-04-06T08:51:56.622Z,95.52
2023-04-06T08:54:23.734Z,95.00
2023-04-06T08:56:54.704Z,94.64
2023-04-06T08:59:21.920Z,94.06
2023-04-06T09:01:49.094Z,93.49
2023-04-06T09:04:17.194Z,93.48
2023-04-06T09:06:44.764Z,93.25
2023-04-06T09:09:11.796Z,93.63
2023-04-06T09:11:48.925Z,94.00
2023-04-06T09:14:16.777Z,93.52
2023-04-06T09:16:44.796Z,93.37
2023-04-06T09:19:11.908Z,92.95
2023-04-06T09:21:43.294Z,92.74
2023-04-06T09:24:24.316Z,92.59
2023-04-06T09:26:51.341Z,92.79
2023-04-06T09:29:28.277Z,92.25
2023-04-06T09:32:03.943Z,91.86
2023-04-06T09:34:30.894Z,92.35
2023-04-06T09:36:58.112Z,92.45
2023-04-06T09:39:25.091Z,92.48
2023-04-06T09:41:52.770Z,91.75
2023-04-06T09:44:20.708Z,92.08
2023-04-06T09:46:58.604Z,92.41
2023-04-06T09:49:31.958Z,92.12
2023-04-06T09:52:01.388Z,92.19
2023-04-06T09:54:30.463Z,92.45
2023-04-06T09:57:02.388Z,92.08
2023-04-06T09:59:37.267Z,91.86
2023-04-06T10:02:09.221Z,91.46
2023-04-06T10:04:39.408Z,90.26
2023-04-06T10:07:07.860Z,90.07
2023-04-06T10:09:38.173Z,90.52
2023-04-06T10:12:07.329Z,90.54
2023-04-06T10:14:38.403Z,88.71
2023-04-06T10:17:06.376Z,88.35
2023-04-06T10:19:38.494Z,89.02
2023-04-06T10:22:08.290Z,88.13
2023-04-06T10:24:35.356Z,87.68
2023-04-06T10:27:03.146Z,86.99
2023-04-06T10:29:30.412Z,86.20
2023-04-06T10:31:58.777Z,85.57
2023-04-06T10:34:35.444Z,83.95
2023-04-06T10:37:11.994Z,84.41
2023-04-06T10:39:47.098Z,83.91
2023-04-06T10:42:15.238Z,83.58
2023-04-06T10:44:43.954Z,84.85
2023-04-06T10:47:17.587Z,85.62
2023-04-06T10:49:44.498Z,86.03
2023-04-06T10:52:12.792Z,86.33
2023-04-06T10:54:44.725Z,86.08
2023-04-06T10:57:11.867Z,84.92
2023-04-06T10:59:43.200Z,84.32
2023-04-06T11:02:10.232Z,83.66
2023-04-06T11:04:39.049Z,83.91
2023-04-06T11:07:06.019Z,83.97
2023-04-06T11:09:41.869Z,83.29
2023-04-06T11:12:10.621Z,83.67
2023-04-06T11:14:39.148Z,83.44
2023-04-06T11:17:06.492Z,82.62
2023-04-06T11:19:33.638Z,83.62
2023-04-06T11:22:07.777Z,83.22
2023-04-06T11:24:35.107Z,81.57
2023-04-06T11:27:02.407Z,81.95
2023-04-06T11:29:30.799Z,82.20
2023-04-06T11:32:06.140Z,82.93
2023-04-06T11:34:34.910Z,81.88
2023-04-06T11:37:03.350Z,80.83
2023-04-06T11:39:31.423Z,78.88
2023-04-06T11:42:00.491Z,77.47
2023-04-06T11:44:38.743Z,76.87
2023-04-06T11:47:07.335Z,78.02
2023-04-06T11:49:35.641Z,78.47
2023-04-06T11:52:03.081Z,78.46
2023-04-06T11:54:39.153Z,80.02
2023-04-06T11:57:06.643Z,79.82
2023-04-06T11:59:35.747Z,80.62
2023-04-06T12:02:03.474Z,80.38
2023-04-06T12:04:32.615Z,78.11
2023-04-06T12:07:03.116Z,78.06
2023-04-06T12:09:30.972Z,77.30
2023-04-06T12:11:58.782Z,74.74
2023-04-06T12:14:26.237Z,73.16
2023-04-06T12:16:53.096Z,71.09
2023-04-06T12:19:20.009Z,69.14
2023-04-06T12:21:47.270Z,68.15
2023-04-06T12:24:14.364Z,68.79
2023-04-06T12:26:43.368Z,67.69
2023-04-06T12:29:10.309Z,66.86
2023-04-06T12:31:40.586Z,67.06
2023-04-06T12:34:08.303Z,67.15
2023-04-06T12:36:35.363Z,65.85
2023-04-06T12:39:02.498Z,66.04
2023-04-06T12:41:29.932Z,64.03
2023-04-06T12:43:57.197Z,62.87
2023-04-06T12:46:24.806Z,61.86
2023-04-06T12:48:55.043Z,61.73
2023-04-06T12:51:21.973Z,61.25
2023-04-06T12:53:49.025Z,62.11
2023-04-06T12:56:23.799Z,63.60
2023-04-06T13:01:38.798Z,60.96
2023-04-06T13:04:11.494Z,60.99
2023-04-06T13:06:39.376Z,60.94
2023-04-06T13:09:06.981Z,61.99
2023-04-06T13:11:34.158Z,62.58
2023-04-06T13:14:01.325Z,61.71
2023-04-06T13:16:29.444Z,62.68
2023-04-06T13:18:56.595Z,62.11
2023-04-06T13:21:23.898Z,60.79
2023-04-06T13:23:51.693Z,61.33
2023-04-06T13:26:19.255Z,61.82
2023-04-06T13:28:46.391Z,59.86
2023-04-06T13:31:13.679Z,57.99
2023-04-06T13:33:42.261Z,58.03
2023-04-06T13:36:09.574Z,58.40
2023-04-06T13:38:40.376Z,58.22
2023-04-06T13:41:07.581Z,57.99
2023-04-06T13:43:34.790Z,57.78
2023-04-06T13:46:02.638Z,56.49
2023-04-06T13:48:29.929Z,56.18
2023-04-06T13:50:57.280Z,55.30
2023-04-06T13:53:24.194Z,57.06
2023-04-06T13:55:56.777Z,57.33
2023-04-06T13:58:26.750Z,57.46
2023-04-06T14:00:54.366Z,56.65
2023-04-06T14:03:21.788Z,58.00
2023-04-06T14:05:49.912Z,57.44
2023-04-06T14:08:25.634Z,56.36
2023-04-06T14:11:03.219Z,55.55
2023-04-06T14:13:31.919Z,56.25
2023-04-06T14:15:59.982Z,56.84
2023-04-06T14:18:36.816Z,56.76
2023-04-06T14:21:04.282Z,57.65
2023-04-06T14:23:35.615Z,58.15
2023-04-06T14:26:05.419Z,58.89
2023-04-06T14:28:34.998Z,58.17
2023-04-06T14:31:04.235Z,58.31
2023-04-06T14:33:31.974Z,59.77
2023-04-06T14:36:04.681Z,59.77
2023-04-06T14:38:32.613Z,60.36
2023-04-06T14:40:59.796Z,60.67
2023-04-06T14:43:27.480Z,61.03
2023-04-06T14:45:54.651Z,61.97
2023-04-06T14:48:35.101Z,62.15
2023-04-06T14:51:02.231Z,65.25
2023-04-06T14:53:29.700Z,69.22
2023-04-06T14:55:59.955Z,71.67
2023-04-06T14:58:29.420Z,74.01
2023-04-06T15:00:59.370Z,76.09
2023-04-06T15:03:27.465Z,77.18
2023-04-06T15:05:55.094Z,77.92
2023-04-06T15:08:39.407Z,78.65
2023-04-06T15:11:06.701Z,78.14
2023-04-06T15:13:33.634Z,78.28
2023-04-06T15:16:02.071Z,77.70
2023-04-06T15:18:32.285Z,77.67
2023-04-06T15:20:59.292Z,78.46
2023-04-06T15:23:26.424Z,79.01
2023-04-06T15:25:53.863Z,78.10
2023-04-06T15:28:21.086Z,77.96
2023-04-06T15:30:58.993Z,74.81
2023-04-06T15:33:30.860Z,74.44
2023-04-06T15:35:57.995Z,74.42
2023-04-06T15:38:25.359Z,72.25
2023-04-06T15:40:52.363Z,71.75
2023-04-06T15:43:19.306Z,71.27
2023-04-06T15:45:46.339Z,70.46
2023-04-06T15:48:15.524Z,69.67
2023-04-06T15:50:49.444Z,68.03
2023-04-06T15:53:23.300Z,68.94
2023-04-06T15:56:11.009Z,68.25
2023-04-06T15:58:41.703Z,66.40
2023-04-06T16:01:17.615Z,66.71
2023-04-06T16:03:46.072Z,68.66
2023-04-06T16:06:13.398Z,69.59
2023-04-06T16:08:41.543Z,69.10
2023-04-06T16:11:09.372Z,69.57
2023-04-06T16:13:36.942Z,70.61
2023-04-06T16:16:22.872Z,71.47
2023-04-06T16:18:50.146Z,71.63
2023-04-06T16:21:26.735Z,72.17
2023-04-06T16:23:54.071Z,70.56
2023-04-06T16:26:22.890Z,70.70
2023-04-06T16:28:52.232Z,69.25
2023-04-06T16:31:20.385Z,69.56
2023-04-06T16:33:47.650Z,69.38
2023-04-06T16:36:14.866Z,69.37
2023-04-06T16:38:41.824Z,71.00
2023-04-06T16:41:08.727Z,74.71
2023-04-06T16:43:47.171Z,76.49
2023-04-06T16:46:20.983Z,76.61
2023-04-06T16:48:48.366Z,77.42
2023-04-06T16:51:16.472Z,78.36
2023-04-06T16:53:48.748Z,77.60
2023-04-06T16:56:18.563Z,77.02
2023-04-06T16:58:46.374Z,78.32
2023-04-06T17:01:20.380Z,78.99
2023-04-06T17:03:47.962Z,79.95
2023-04-06T17:06:15.774Z,80.78
2023-04-06T17:08:44.315Z,81.01
2023-04-06T17:11:11.872Z,80.63
2023-04-06T17:13:39.004Z,81.94
2023-04-06T17:16:07.099Z,83.17
2023-04-06T17:18:35.834Z,83.71
2023-04-06T17:21:07.428Z,83.17
2023-04-06T17:23:34.401Z,82.51
2023-04-06T17:26:05.689Z,80.79
2023-04-06T17:28:38.557Z,80.21
2023-04-06T17:31:16.981Z,79.48
2023-04-06T17:33:44.272Z,78.41
2023-04-06T17:36:13.014Z,80.03
2023-04-06T17:38:44.363Z,80.80
2023-04-06T17:41:15.674Z,78.71
2023-04-06T17:43:42.702Z,79.12
2023-04-06T17:46:09.969Z,78.32
2023-04-06T17:48:44.414Z,78.28
2023-04-06T17:51:14.610Z,78.61
2023-04-06T17:53:41.799Z,79.08
2023-04-06T17:56:08.885Z,78.22
2023-04-06T17:58:36.944Z,77.39
2023-04-06T18:01:09.360Z,75.63
2023-04-06T18:03:38.281Z,74.32
2023-04-06T18:06:13.394Z,75.50
2023-04-06T18:08:41.623Z,75.50
2023-04-06T18:11:11.237Z,76.57
2023-04-06T18:13:40.110Z,78.36
2023-04-06T18:16:07.805Z,78.76
2023-04-06T18:18:34.791Z,78.43
2023-04-06T18:21:05.453Z,78.06
2023-04-06T18:23:36.239Z,78.18
2023-04-06T18:26:08.655Z,78.22
2023-04-06T18:28:40.837Z,78.75
2023-04-06T18:31:07.927Z,79.08
2023-04-06T18:33:35.146Z,79.98
2023-04-06T18:36:02.163Z,79.83
2023-04-06T18:38:29.113Z,80.38
2023-04-06T18:40:56.129Z,80.78
2023-04-06T18:43:23.072Z,81.30
2023-04-06T18:45:50.029Z,81.64
2023-04-06T18:48:17.132Z,81.65
2023-04-06T18:50:53.354Z,81.69
2023-04-06T18:53:21.511Z,81.62
2023-04-06T18:55:48.507Z,81.16
2023-04-06T18:58:15.529Z,81.05
2023-04-06T19:00:42.783Z,81.19
2023-04-06T19:03:09.992Z,81.47
2023-04-06T19:05:37.153Z,80.68
2023-04-06T19:08:04.048Z,79.90
2023-04-06T19:10:31.212Z,80.69
2023-04-06T19:12:58.293Z,81.20
2023-04-06T19:15:25.181Z,80.91
2023-04-06T19:17:52.266Z,80.63
2023-04-06T19:20:19.210Z,80.89
2023-04-06T19:22:46.680Z,81.09
2023-04-06T19:25:13.715Z,81.79
2023-04-06T19:27:40.734Z,82.01
2023-04-06T19:30:08.180Z,81.91
2023-04-06T19:32:35.082Z,80.98
2023-04-06T19:35:03.229Z,80.89
2023-04-06T19:37:30.191Z,80.78
2023-04-06T19:39:57.005Z,81.02
2023-04-06T19:42:24.483Z,81.04
2023-04-06T19:44:51.446Z,80.89
2023-04-06T19:47:18.606Z,81.03
2023-04-06T19:49:45.648Z,80.46
2023-04-06T19:52:12.628Z,80.75
2023-04-06T19:54:40.013Z,81.02
2023-04-06T19:57:07.061Z,81.46
2023-04-06T19:59:35.245Z,80.80
2023-04-06T20:02:02.478Z,80.81
2023-04-06T20:04:29.515Z,81.63
2023-04-06T20:06:56.371Z,81.89
2023-04-06T20:09:23.316Z,82.27
2023-04-06T20:11:50.146Z,82.26
2023-04-06T20:14:18.242Z,82.46
2023-04-06T20:16:45.198Z,82.41
2023-04-06T20:19:12.110Z,81.76
2023-04-06T20:21:39.716Z,81.74
2023-04-06T20:24:06.609Z,82.07
2023-04-06T20:26:33.583Z,82.45
2023-04-06T20:29:00.436Z,82.08
2023-04-06T20:31:27.904Z,82.78
2023-04-06T20:33:54.924Z,82.54
2023-04-06T20:36:22.334Z,81.82
2023-04-06T20:38:49.430Z,82.28
2023-04-06T20:41:16.644Z,82.18
2023-04-06T20:43:43.489Z,82.08
2023-04-06T20:46:14.858Z,82.07
2023-04-06T20:48:42.080Z,82.39
2023-04-06T20:51:09.041Z,82.37
2023-04-06T20:53:35.986Z,82.61
2023-04-06T20:56:03.371Z,82.70
2023-04-06T20:58:30.292Z,82.78
2023-04-06T21:00:57.377Z,82.21
2023-04-06T21:03:24.664Z,82.46
2023-04-06T21:05:53.632Z,82.60
2023-04-06T21:08:20.601Z,83.06
2023-04-06T21:10:47.412Z,82.93
2023-04-06T21:13:14.240Z,82.89
2023-04-06T21:15:41.608Z,82.88
2023-04-06T21:18:08.776Z,82.69
2023-04-06T21:20:35.930Z,81.77
2023-04-06T21:23:02.892Z,81.70
2023-04-06T21:25:29.728Z,82.13
2023-04-06T21:27:56.639Z,81.78
2023-04-06T21:30:23.489Z,81.24
2023-04-06T21:32:50.450Z,80.55
2023-04-06T21:35:17.326Z,80.95
2023-04-06T21:37:44.114Z,79.76
2023-04-06T21:40:12.954Z,78.99
2023-04-06T21:42:39.803Z,78.22
2023-04-06T21:45:06.932Z,77.52
2023-04-06T21:47:35.104Z,77.28
2023-04-06T21:50:02.072Z,76.99
2023-04-06T21:52:28.884Z,76.68
2023-04-06T21:54:55.654Z,76.36
2023-04-06T21:57:22.592Z,76.06
2023-04-06T21:59:49.431Z,74.93
2023-04-06T22:02:16.360Z,73.79
2023-04-06T22:04:43.750Z,73.24
2023-04-06T22:07:10.644Z,72.63
2023-04-06T22:09:37.479Z,72.31
2023-04-06T22:12:04.337Z,72.34
2023-04-06T22:14:31.512Z,71.72
2023-04-06T22:16:58.393Z,71.96
2023-04-06T22:19:25.253Z,72.05
2023-04-06T22:21:52.530Z,72.16
2023-04-06T22:24:19.766Z,72.55
2023-04-06T22:26:46.945Z,72.65
2023-04-06T22:29:13.765Z,73.67
2023-04-06T22:31:40.827Z,73.71
2023-04-06T22:34:07.783Z,73.30
2023-04-06T22:36:34.828Z,73.12
2023-04-06T22:39:01.798Z,73.58
2023-04-06T22:41:28.648Z,71.20
2023-04-06T22:43:55.666Z,72.18
2023-04-06T22:46:23.540Z,72.17
2023-04-06T22:48:50.367Z,72.68
2023-04-06T22:51:17.294Z,72.54
2023-04-06T22:53:44.077Z,72.40
2023-04-06T22:56:10.991Z,72.54
2023-04-06T22:58:37.802Z,73.24
2023-04-06T23:01:04.741Z,73.55
2023-04-06T23:03:31.842Z,73.36
2023-04-06T23:05:58.793Z,73.04
2023-04-06T23:08:25.567Z,73.42
2023-04-06T23:10:52.343Z,73.43
2023-04-06T23:13:19.226Z,73.52
2023-04-06T23:15:46.169Z,72.13
2023-04-06T23:18:12.973Z,72.09
2023-04-06T23:20:40.049Z,73.25
2023-04-06T23:23:07.051Z,72.88
2023-04-06T23:25:33.844Z,72.87
2023-04-06T23:28:00.816Z,73.62
2023-04-06T23:30:27.590Z,73.63
2023-04-06T23:32:54.412Z,73.61
2023-04-06T23:35:21.184Z,73.13
2023-04-06T23:37:47.976Z,72.73
2023-04-06T23:40:14.753Z,73.29
2023-04-06T23:42:41.554Z,73.68
2023-04-06T23:45:08.747Z,73.97
2023-04-06T23:47:35.628Z,73.42
2023-04-06T23:50:02.445Z,73.27
2023-04-06T23:52:30.324Z,73.09
2023-04-06T23:54:57.080Z,73.79
2023-04-06T23:57:23.832Z,72.94
2023-04-06T23:59:50.640Z,73.77
